Item Display Status Serial CT Sensor

Mooring Depth: 1 m

 

Deployed Sensor

  • Serial Number: 8789
  • NDBC Property Number: 35199
  • Start Date: 6/2/2016 (12:02:36 Z)
  • End Date: 9/14/2017 (08:30:00 Z)
Water Temperature [°C]     6 entries per hour
Showing data from 9/23/2016 (03:00:00 Z) to 9/22/2016 (00:00:01 Z)
Previous Next [ Day | 3-Days | 7-Days ]
First Last
Prev [ Day | 3-Days | 7-Days ] Next
First Last

Start Time:     :
End Time:     :     
Time (in GMT) :00 :50 :40 :30 :20 :10
Previous Next [ Day | 3-Days | 7-Days ]
First Last
Prev [ Day | 3-Days | 7-Days ] Next
First Last


123 => good data
MM => data is determined as missing
-- => data not received/configured
Back to Top Back to Top
9/23/2016 03:00 to 2:10 29.618 29.628 29.630 29.628 29.634 29.632
9/23/2016 02:00 to 1:10 29.630 29.623 29.615 29.613 29.615 29.619
9/23/2016 01:00 to 0:10 -- -- -- -- -- --
9/23/2016 00:00 to 23:10 29.604 29.618 29.620 29.618 29.614 29.601
9/22/2016 23:00 to 22:10 29.610 29.590 29.586 29.574 29.575 29.554
9/22/2016 22:00 to 21:10 29.557 29.559 29.543 29.535 29.541 29.527
9/22/2016 21:00 to 20:10 29.498 29.503 29.476 29.496 29.469 29.439
9/22/2016 20:00 to 19:10 29.436 29.386 29.336 29.360 29.504 29.498
9/22/2016 19:00 to 18:10 29.470 29.437 29.506 29.507 29.517 29.486
9/22/2016 18:00 to 17:10 29.493 29.497 29.493 29.515 29.551 29.564
9/22/2016 17:00 to 16:10 29.566 29.521 29.521 29.568 29.574 29.579
9/22/2016 16:00 to 15:10 29.588 29.554 29.543 29.548 29.575 29.573
9/22/2016 15:00 to 14:10 29.565 29.582 29.570 29.589 29.584 29.583
9/22/2016 14:00 to 13:10 29.567 29.560 29.552 29.564 29.582 29.566
9/22/2016 13:00 to 12:10 29.584 29.620 29.627 29.628 29.632 29.639
9/22/2016 12:00 to 11:10 29.644 29.648 29.649 29.652 29.658 29.640
9/22/2016 11:00 to 10:10 29.656 29.661 29.678 29.671 29.673 29.678
9/22/2016 10:00 to 9:10 29.679 29.690 29.695 29.701 29.692 29.697
9/22/2016 09:00 to 8:10 29.699 29.718 29.711 29.694 29.696 29.696
9/22/2016 08:00 to 7:10 29.715 29.726 29.696 29.739 29.747 29.737
9/22/2016 07:00 to 6:10 29.741 29.759 29.778 29.778 29.801 29.789
9/22/2016 06:00 to 5:10 29.791 29.825 29.870 29.845 29.862 29.898
9/22/2016 05:00 to 4:10 29.941 29.964 29.981 29.995 30.032 30.026
9/22/2016 04:00 to 3:10 30.086 30.161 30.117 30.134 30.144 30.169
9/22/2016 03:00 to 2:10 30.168 30.140 30.222 30.286 30.205 30.150
9/22/2016 02:00 to 1:10 30.142 30.015 29.985 30.028 30.110 30.073
9/22/2016 01:00 to 0:10 30.065 30.052 30.049 30.058 30.056 29.954

 

 

 

Conductivity [S/m]     6 entries per hour
Showing data from 9/23/2016 (03:00:00 Z) to 9/22/2016 (00:00:01 Z)
Previous Next [ Day | 3-Days | 7-Days ]
First Last
Prev [ Day | 3-Days | 7-Days ] Next
First Last

Start Time:     :
End Time:     :     
Time (in GMT) :00 :50 :40 :30 :20 :10
Previous Next [ Day | 3-Days | 7-Days ]
First Last
Prev [ Day | 3-Days | 7-Days ] Next
First Last


123 => good data
MM => data is determined as missing
-- => data not received/configured
Back to Top Back to Top
9/23/2016 03:00 to 2:10 5.63791 5.63883 5.63914 5.63887 5.63916 5.63907
9/23/2016 02:00 to 1:10 5.63842 5.63775 5.63633 5.63594 5.63549 5.63618
9/23/2016 01:00 to 0:10 -- -- -- -- -- --
9/23/2016 00:00 to 23:10 5.63247 5.63375 5.63357 5.63307 5.63172 5.63055
9/22/2016 23:00 to 22:10 5.63094 5.62913 5.62721 5.62557 5.62511 5.62117
9/22/2016 22:00 to 21:10 5.61889 5.61852 5.61538 5.61290 5.61270 5.61367
9/22/2016 21:00 to 20:10 5.60890 5.61035 5.60267 5.60935 5.60353 5.59676
9/22/2016 20:00 to 19:10 5.59988 5.58732 5.57624 5.57647 5.61177 5.61442
9/22/2016 19:00 to 18:10 5.59460 5.59211 5.61436 5.60335 5.61687 5.61125
9/22/2016 18:00 to 17:10 5.60763 5.61091 5.61333 5.61493 5.62953 5.63453
9/22/2016 17:00 to 16:10 5.63418 5.62609 5.62662 5.63390 5.63536 5.63571
9/22/2016 16:00 to 15:10 5.63767 5.63129 5.62826 5.63253 5.63479 5.63500
9/22/2016 15:00 to 14:10 5.63660 5.63785 5.63574 5.63802 5.63742 5.63688
9/22/2016 14:00 to 13:10 5.63273 5.63240 5.63105 5.63213 5.63434 5.63135
9/22/2016 13:00 to 12:10 5.63096 5.64180 5.64342 5.64350 5.64320 5.64459
9/22/2016 12:00 to 11:10 5.64467 5.64507 5.64519 5.64585 5.64618 5.64424
9/22/2016 11:00 to 10:10 5.64657 5.64687 5.64808 5.64688 5.64731 5.64789
9/22/2016 10:00 to 9:10 5.64848 5.64933 5.64973 5.64988 5.64968 5.65034
9/22/2016 09:00 to 8:10 5.64958 5.65153 5.65104 5.64684 5.64558 5.64829
9/22/2016 08:00 to 7:10 5.65167 5.65289 5.65068 5.65428 5.65542 5.65430
9/22/2016 07:00 to 6:10 5.65432 5.65567 5.65797 5.65861 5.65995 5.65901
9/22/2016 06:00 to 5:10 5.65933 5.66238 5.66661 5.66557 5.66734 5.67076
9/22/2016 05:00 to 4:10 5.67517 5.67755 5.67952 5.68069 5.68493 5.68395
9/22/2016 04:00 to 3:10 5.68962 5.69842 5.69401 5.69666 5.69827 5.70054
9/22/2016 03:00 to 2:10 5.69959 5.70032 5.70565 5.71018 5.70176 5.69920
9/22/2016 02:00 to 1:10 5.69711 5.69160 5.68328 5.68229 5.69323 5.68978
9/22/2016 01:00 to 0:10 5.68744 5.68894 5.68349 5.68612 5.68163 5.67695

 

 

 

Salinity [psu]     6 entries per hour
Showing data from 9/23/2016 (03:00:00 Z) to 9/22/2016 (00:00:01 Z)
Previous Next [ Day | 3-Days | 7-Days ]
First Last
Prev [ Day | 3-Days | 7-Days ] Next
First Last

Start Time:     :
End Time:     :     
Time (in GMT) :00 :50 :40 :30 :20 :10
Previous Next [ Day | 3-Days | 7-Days ]
First Last
Prev [ Day | 3-Days | 7-Days ] Next
First Last


123 => good data
MM => data is determined as missing
-- => data not received/configured
Back to Top Back to Top
9/23/2016 03:00 to 2:10 33.93 33.93 33.93 33.93 33.93 33.93
9/23/2016 02:00 to 1:10 33.93 33.93 33.93 33.92 33.92 33.92
9/23/2016 01:00 to 0:10 -- -- -- -- -- --
9/23/2016 00:00 to 23:10 33.91 33.91 33.90 33.90 33.89 33.90
9/22/2016 23:00 to 22:10 33.89 33.89 33.88 33.88 33.88 33.86
9/22/2016 22:00 to 21:10 33.85 33.84 33.83 33.82 33.82 33.83
9/22/2016 21:00 to 20:10 33.82 33.83 33.79 33.83 33.81 33.78
9/22/2016 20:00 to 19:10 33.80 33.75 33.71 33.70 33.84 33.86
9/22/2016 19:00 to 18:10 33.74 33.75 33.85 33.78 33.86 33.85
9/22/2016 18:00 to 17:10 33.82 33.84 33.85 33.85 33.92 33.95
9/22/2016 17:00 to 16:10 33.94 33.92 33.93 33.94 33.95 33.95
9/22/2016 16:00 to 15:10 33.95 33.93 33.92 33.95 33.94 33.95
9/22/2016 15:00 to 14:10 33.96 33.96 33.95 33.95 33.95 33.95
9/22/2016 14:00 to 13:10 33.93 33.94 33.93 33.93 33.93 33.93
9/22/2016 13:00 to 12:10 33.91 33.96 33.96 33.96 33.96 33.96
9/22/2016 12:00 to 11:10 33.96 33.96 33.96 33.96 33.96 33.96
9/22/2016 11:00 to 10:10 33.97 33.96 33.96 33.96 33.96 33.96
9/22/2016 10:00 to 9:10 33.96 33.96 33.96 33.96 33.96 33.96
9/22/2016 09:00 to 8:10 33.96 33.96 33.96 33.94 33.93 33.95
9/22/2016 08:00 to 7:10 33.96 33.96 33.97 33.96 33.96 33.96
9/22/2016 07:00 to 6:10 33.96 33.95 33.96 33.96 33.95 33.96
9/22/2016 06:00 to 5:10 33.96 33.95 33.95 33.96 33.96 33.96
9/22/2016 05:00 to 4:10 33.96 33.96 33.96 33.96 33.96 33.96
9/22/2016 04:00 to 3:10 33.95 33.96 33.96 33.97 33.97 33.97
9/22/2016 03:00 to 2:10 33.96 33.99 33.97 33.95 33.95 33.97
9/22/2016 02:00 to 1:10 33.97 34.02 33.98 33.95 33.96 33.96
9/22/2016 01:00 to 0:10 33.95 33.97 33.94 33.95 33.92 33.96